KLGC/LGC METAR and TAF weather

Enter ICAO airport designator
Station Type Date Time Source
KLGC METAR 2019/08/25 18:15 UTC NOAA

KLGC 251815Z AUTO 06003KT 2 1/2SM +RA SCT005 BKN014 OVC033 21/20 A3008 RMK AO2 VIS 1 1/4V5 T02080202


Station Type Date Time Source
KLGC Decoded METAR 2019/08/25 18:15 UTC NOAA

Station name not available
Aug 25, 2019 - 02:15 PM EDT / 2019.08.25 1815 UTC
Wind: from the ENE (060 degrees) at 3 MPH (3 KT):0
Visibility: 2 1/2 mile(s):0
Sky conditions: overcast
Weather: heavy rain
Temperature: 69.4 F (20.8 C)
Dew Point: 68.4 F (20.2 C)
Relative Humidity: 96%
Pressure (altimeter): 30.08 in. Hg (1018 hPa)
ob: KLGC 251815Z AUTO 06003KT 2 1/2SM +RA SCT005 BKN014 OVC033 21/20 A3008 RMK AO2 VIS 1 1/4V5 T02080202
cycle: 18

Station Type Date Time Source
KLGC TAF UTC NOAA

Error!

Example: see airport list